Time;durP1;ratioP1;P1;durP2;ratioP2;P2;SDS_P1;SDS_P2;PMS_P1;PMS_P2;Temp;Humidity;BMP_temperature;BMP_pressure;BME280_temperature;BME280_humidity;BME280_pressure;Samples;Min_cycle;Max_cycle;Signal;HPM_P1;HPM_P2
2024/04/04 00:00:00;;;;;;;26.48;4.47;;;;;;;10.37;89.33;100342.88;4981902;28;20056;-49
2024/04/04 00:02:25;;;;;;;29.33;4.28;;;;;;;10.21;89.79;100334.66;4979453;28;20055;-51
2024/04/04 00:04:59;;;;;;;21.05;4.43;;;;;;;10.59;88.04;100339.03;4982828;28;20509;-51
2024/04/04 00:07:25;;;;;;;23.35;3.58;;;;;;;10.39;89.16;100346.22;4982310;28;20465;-50
2024/04/04 00:09:51;;;;;;;18.70;4.75;;;;;;;10.54;88.61;100343.97;4989217;28;20054;-51
2024/04/04 00:12:19;;;;;;;32.83;5.30;;;;;;;10.50;88.26;100347.84;4969395;28;20061;-52
2024/04/04 00:14:48;;;;;;;28.48;4.22;;;;;;;10.26;88.72;100341.22;4980863;28;20050;-50
2024/04/04 00:17:15;;;;;;;16.45;3.05;;;;;;;10.50;89.59;100353.19;4991037;28;20057;-48
2024/04/04 00:19:40;;;;;;;22.98;3.58;;;;;;;10.55;88.79;100346.50;4987272;28;20057;-51
2024/04/04 00:22:07;;;;;;;23.13;4.60;;;;;;;10.82;86.71;100351.00;4988310;28;20047;-52
2024/04/04 00:24:33;;;;;;;20.52;3.28;;;;;;;10.70;87.22;100350.31;4972232;28;20145;-50
2024/04/04 00:26:59;;;;;;;25.55;3.80;;;;;;;10.55;88.27;100350.97;4985561;28;20057;-50
2024/04/04 00:29:25;;;;;;;22.73;4.28;;;;;;;10.48;88.89;100342.69;4985061;28;20053;-48
2024/04/04 00:31:51;;;;;;;24.85;3.35;;;;;;;10.72;87.17;100334.19;4950865;28;20059;-54
2024/04/04 00:34:19;;;;;;;26.05;4.35;;;;;;;10.81;87.30;100341.31;4982699;28;20421;-52
2024/04/04 00:36:45;;;;;;;24.02;4.00;;;;;;;10.69;86.83;100355.81;4968236;28;20053;-52
2024/04/04 00:39:10;;;;;;;30.58;4.65;;;;;;;10.46;87.83;100341.16;4987846;28;20577;-53
2024/04/04 00:41:36;;;;;;;20.20;3.28;;;;;;;10.11;88.98;100363.97;4984995;28;20061;-49
2024/04/04 00:44:02;;;;;;;20.67;3.95;;;;;;;10.12;89.98;100348.84;4990505;28;20132;-52
2024/04/04 00:46:27;;;;;;;26.58;3.90;;;;;;;10.43;89.15;100350.28;4984493;28;20402;-50
2024/04/04 00:48:54;;;;;;;25.95;4.57;;;;;;;10.73;86.35;100351.88;4949444;28;20053;-52
2024/04/04 00:51:21;;;;;;;33.22;4.90;;;;;;;10.38;87.56;100345.38;4983029;28;20560;-49
2024/04/04 00:53:47;;;;;;;20.30;4.05;;;;;;;10.48;87.10;100342.69;4952500;28;20051;-46
2024/04/04 00:56:12;;;;;;;15.35;3.42;;;;;;;10.56;87.93;100342.81;4990712;28;20058;-47
2024/04/04 00:58:39;;;;;;;22.73;3.47;;;;;;;10.38;86.89;100353.38;4985616;28;20046;-51
2024/04/04 01:01:05;;;;;;;15.98;3.70;;;;;;;10.28;88.56;100351.75;4989408;28;20068;-48
2024/04/04 01:03:31;;;;;;;16.85;2.90;;;;;;;10.74;86.78;100351.72;4982896;28;20050;-52
2024/04/04 01:05:57;;;;;;;22.23;3.22;;;;;;;10.79;85.33;100349.44;4981729;28;20055;-53
2024/04/04 01:08:23;;;;;;;21.13;4.35;;;;;;;10.79;85.70;100343.28;4984859;28;20088;-52
2024/04/04 01:10:49;;;;;;;21.70;2.75;;;;;;;10.67;86.53;100360.47;4980228;28;20100;-50
2024/04/04 01:13:15;;;;;;;15.32;3.58;;;;;;;10.38;87.82;100340.06;4985634;28;20054;-51
2024/04/04 01:15:41;;;;;;;27.95;4.45;;;;;;;10.26;88.23;100351.03;4985297;28;20046;-48
2024/04/04 01:18:07;;;;;;;25.08;3.47;;;;;;;10.37;87.46;100356.19;4984807;28;20057;-54
2024/04/04 01:20:33;;;;;;;20.98;3.42;;;;;;;10.34;88.19;100344.00;4967812;28;20082;-50
2024/04/04 01:22:59;;;;;;;23.35;4.28;;;;;;;10.07;88.19;100341.28;4972891;28;20081;-54
2024/04/04 01:25:24;;;;;;;20.52;3.85;;;;;;;10.50;87.27;100342.53;4968529;28;20042;-48
2024/04/04 01:27:51;;;;;;;24.10;3.83;;;;;;;10.41;87.39;100338.94;4978436;28;20042;-51
2024/04/04 01:30:17;;;;;;;18.73;3.65;;;;;;;10.34;87.34;100348.50;4981668;28;20472;-48
2024/04/04 01:32:43;;;;;;;18.13;3.92;;;;;;;10.58;86.29;100340.00;4967884;28;20142;-51
2024/04/04 01:35:09;;;;;;;26.13;4.57;;;;;;;10.37;86.63;100338.38;4968816;28;20078;-52
2024/04/04 01:37:35;;;;;;;23.10;4.03;;;;;;;10.14;87.12;100326.41;4976120;28;20407;-48
2024/04/04 01:40:02;;;;;;;22.77;3.63;;;;;;;9.89;89.25;100335.84;4979106;28;20046;-47
2024/04/04 01:42:29;;;;;;;12.27;3.58;;;;;;;10.22;87.42;100336.31;4980715;28;20060;-50
2024/04/04 01:44:55;;;;;;;19.85;3.58;;;;;;;10.52;85.63;100336.09;4980566;28;20402;-49
2024/04/04 01:47:21;;;;;;;19.55;3.45;;;;;;;10.42;85.27;100327.31;4965487;28;20427;-51
2024/04/04 01:49:46;;;;;;;16.88;3.13;;;;;;;10.46;85.32;100327.84;4964709;28;20046;-50
2024/04/04 01:52:12;;;;;;;14.20;3.25;;;;;;;10.35;85.03;100335.00;4980255;28;20129;-54
2024/04/04 01:54:38;;;;;;;20.85;4.82;;;;;;;10.12;85.07;100324.88;4968489;28;20050;-50
2024/04/04 01:57:04;;;;;;;24.30;3.53;;;;;;;10.02;85.83;100322.22;4968742;28;20055;-48
2024/04/04 01:59:30;;;;;;;20.08;3.17;;;;;;;9.83;85.93;100316.94;4968120;28;20567;-53
2024/04/04 02:01:56;;;;;;;16.35;3.58;;;;;;;10.01;85.46;100328.56;4978784;28;20047;-51
2024/04/04 02:04:22;;;;;;;14.88;3.13;;;;;;;9.93;86.18;100323.09;4975988;28;20057;-54
2024/04/04 02:06:48;;;;;;;16.33;3.15;;;;;;;9.94;85.26;100320.28;4955027;28;20125;-52
2024/04/04 02:09:13;;;;;;;22.30;3.00;;;;;;;9.54;87.86;100312.50;4967840;28;20396;-50
2024/04/04 02:11:40;;;;;;;11.80;2.90;;;;;;;9.46;87.83;100315.03;4983274;28;20077;-49
2024/04/04 02:14:09;;;;;;;22.98;3.38;;;;;;;9.52;87.31;100310.97;4996837;28;20528;-51
2024/04/04 02:16:41;;;;;;;25.00;4.93;;;;;;;9.49;86.25;100309.41;4985939;28;20866;-46
2024/04/04 02:19:07;;;;;;;18.75;3.03;;;;;;;9.67;86.15;100308.72;4986351;28;20057;-51
2024/04/04 02:21:32;;;;;;;17.10;3.05;;;;;;;9.53;86.12;100304.69;4983386;28;20050;-50
2024/04/04 02:23:58;;;;;;;17.38;3.00;;;;;;;9.17;87.04;100314.16;4982834;28;20141;-48
2024/04/04 02:26:24;;;;;;;20.40;3.25;;;;;;;9.62;86.04;100304.66;4984408;28;20405;-52
2024/04/04 02:28:50;;;;;;;26.40;2.80;;;;;;;9.21;87.19;100302.25;4985205;28;20046;-53
2024/04/04 02:31:16;;;;;;;22.38;3.60;;;;;;;9.44;86.68;100298.38;4978457;28;20050;-52
2024/04/04 02:33:42;;;;;;;17.40;3.55;;;;;;;9.29;85.76;100291.75;4996583;28;20050;-52
2024/04/04 02:36:08;;;;;;;12.57;2.67;;;;;;;9.13;86.51;100302.09;4981301;28;20415;-52
2024/04/04 02:38:34;;;;;;;20.30;3.05;;;;;;;9.34;86.65;100291.31;4979166;28;20506;-51
2024/04/04 02:41:02;;;;;;;15.43;2.85;;;;;;;9.16;86.48;100288.53;4986558;28;20049;-51
2024/04/04 02:43:28;;;;;;;14.75;3.03;;;;;;;9.04;87.31;100287.00;4998637;28;20057;-50
2024/04/04 02:46:02;;;;;;;22.48;4.22;;;;;;;8.94;87.34;100278.16;5000396;28;20418;-51
2024/04/04 02:48:28;;;;;;;20.02;4.22;;;;;;;8.97;87.23;100277.88;4983098;28;20054;-48
2024/04/04 02:50:58;;;;;;;20.20;3.67;;;;;;;9.03;86.83;100283.50;4992829;28;20052;-49
2024/04/04 02:53:24;;;;;;;15.67;2.97;;;;;;;8.98;87.13;100276.91;4984829;28;20046;-46
2024/04/04 02:55:57;;;;;;;18.45;2.90;;;;;;;9.28;86.56;100276.78;4978266;28;20054;-51
2024/04/04 02:58:24;;;;;;;18.88;2.70;;;;;;;9.08;86.20;100275.09;4988440;28;20042;-51
2024/04/04 03:00:51;;;;;;;11.40;2.05;;;;;;;9.14;85.77;100269.22;4983937;28;20050;-51
2024/04/04 03:03:18;;;;;;;14.77;3.13;;;;;;;9.23;85.39;100263.91;4983981;28;20051;-55
2024/04/04 03:05:43;;;;;;;17.83;2.50;;;;;;;9.31;85.04;100263.22;4994039;28;20096;-47
2024/04/04 03:08:10;;;;;;;15.60;2.67;;;;;;;9.23;84.43;100277.19;4989854;28;20074;-49
2024/04/04 03:10:36;;;;;;;13.68;2.33;;;;;;;8.75;86.96;100278.97;4980733;28;20062;-52
2024/04/04 03:13:03;;;;;;;19.00;3.60;;;;;;;9.16;85.47;100283.22;4984503;28;20409;-47
2024/04/04 03:15:30;;;;;;;14.60;2.72;;;;;;;9.08;85.20;100269.78;4983212;28;20343;-50
2024/04/04 03:17:57;;;;;;;16.95;2.38;;;;;;;9.02;85.48;100268.50;4978267;28;20056;-51
2024/04/04 03:20:23;;;;;;;13.27;2.55;;;;;;;9.18;84.92;100262.66;4979615;28;20046;-49
2024/04/04 03:22:49;;;;;;;20.70;3.30;;;;;;;9.02;85.84;100263.19;4998144;28;20564;-49
2024/04/04 03:25:15;;;;;;;15.40;2.80;;;;;;;9.14;84.94;100269.22;4991705;28;20076;-50
2024/04/04 03:27:41;;;;;;;20.77;2.60;;;;;;;9.05;84.99;100260.28;4993770;28;20046;-50
2024/04/04 03:30:07;;;;;;;10.60;2.63;;;;;;;8.83;85.22;100269.34;4998916;28;20426;-49
2024/04/04 03:32:33;;;;;;;15.65;2.70;;;;;;;9.00;85.09;100259.00;4987007;28;20046;-54
2024/04/04 03:34:59;;;;;;;13.48;3.03;;;;;;;8.98;85.54;100261.81;4986972;28;20054;-52
2024/04/04 03:37:25;;;;;;;17.98;2.88;;;;;;;8.91;86.10;100251.88;4985318;28;20076;-52
2024/04/04 03:39:54;;;;;;;12.27;2.72;;;;;;;8.79;86.09;100251.97;5002667;28;20483;-52
2024/04/04 03:42:22;;;;;;;14.30;2.92;;;;;;;8.91;85.54;100246.56;4985526;28;20046;-51
2024/04/04 03:44:51;;;;;;;14.18;2.40;;;;;;;8.77;85.44;100240.66;4991158;28;20072;-52
2024/04/04 03:47:17;;;;;;;13.48;2.45;;;;;;;8.75;84.75;100228.47;4983700;28;20055;-54
2024/04/04 03:49:42;;;;;;;17.75;2.50;;;;;;;8.76;84.96;100244.28;4987937;28;20164;-50
2024/04/04 03:52:08;;;;;;;14.70;2.55;;;;;;;8.96;84.09;100231.88;4987702;28;20046;-51
2024/04/04 03:54:34;;;;;;;10.65;2.20;;;;;;;8.79;84.69;100221.91;4979538;28;20144;-51
2024/04/04 03:56:59;;;;;;;12.20;2.30;;;;;;;8.96;84.22;100221.22;4987814;28;20073;-48
2024/04/04 03:59:25;;;;;;;12.93;2.65;;;;;;;8.89;84.08;100220.09;4988984;28;20128;-52
2024/04/04 04:01:52;;;;;;;13.93;2.28;;;;;;;8.48;85.00;100222.97;5002008;28;20050;-52
2024/04/04 04:04:18;;;;;;;12.82;2.50;;;;;;;8.99;83.87;100220.94;4980137;28;20505;-52
2024/04/04 04:06:43;;;;;;;12.65;2.92;;;;;;;8.93;83.86;100212.69;5008945;28;20050;-48
2024/04/04 04:09:09;;;;;;;13.90;2.70;;;;;;;9.13;83.19;100223.19;4989000;28;20050;-45
2024/04/04 04:11:35;;;;;;;12.82;2.70;;;;;;;8.62;83.70;100225.25;4979150;28;20051;-54
2024/04/04 04:14:01;;;;;;;10.55;2.35;;;;;;;8.62;84.81;100219.94;4981369;28;20077;-50
2024/04/04 04:16:27;;;;;;;8.43;1.95;;;;;;;8.87;83.93;100211.44;4981344;28;20497;-49
2024/04/04 04:18:53;;;;;;;12.95;2.58;;;;;;;8.95;82.67;100222.22;4983526;28;20064;-46
2024/04/04 04:21:21;;;;;;;13.27;2.42;;;;;;;8.64;83.87;100216.19;4982391;28;20050;-52
2024/04/04 04:23:51;;;;;;;12.27;2.25;;;;;;;8.51;84.78;100215.56;5000049;28;20046;-52
2024/04/04 04:26:18;;;;;;;11.77;3.03;;;;;;;9.04;82.85;100204.59;4994836;28;20059;-53
2024/04/04 04:28:46;;;;;;;13.77;2.72;;;;;;;9.09;82.32;100215.63;4999554;28;20410;-48
2024/04/04 04:31:22;;;;;;;6.07;1.77;;;;;;;8.55;83.76;100224.13;4982814;28;20060;-45
2024/04/04 04:33:48;;;;;;;10.38;1.83;;;;;;;8.55;84.85;100214.34;4980596;28;20791;-45
2024/04/04 04:36:14;;;;;;;5.55;1.60;;;;;;;9.26;81.70;100212.28;4983817;28;20050;-46
2024/04/04 04:38:39;;;;;;;8.85;2.00;;;;;;;9.28;81.17;100212.94;4983576;28;20062;-52
2024/04/04 04:41:05;;;;;;;9.02;2.30;;;;;;;8.99;81.98;100207.66;4986415;28;20048;-51
2024/04/04 04:43:31;;;;;;;7.53;1.95;;;;;;;9.02;82.24;100209.19;4982345;28;20046;-49
2024/04/04 04:45:57;;;;;;;6.88;1.70;;;;;;;8.88;84.08;100206.97;4983809;28;20514;-51
2024/04/04 04:48:22;;;;;;;6.18;1.90;;;;;;;8.81;84.02;100196.88;4982319;28;20120;-49
2024/04/04 04:50:48;;;;;;;4.55;1.65;;;;;;;8.99;83.54;100196.22;4987272;28;20046;-46
2024/04/04 04:56:31;;;;;;;9.10;1.65;;;;;;;9.28;82.19;100197.00;5006191;28;20054;-53
2024/04/04 04:58:56;;;;;;;6.13;1.55;;;;;;;9.10;82.60;100190.72;5007161;28;20442;-52
2024/04/04 05:01:22;;;;;;;8.93;1.73;;;;;;;9.07;82.99;100186.53;4991018;28;20104;-48
2024/04/04 05:03:50;;;;;;;6.93;1.90;;;;;;;9.15;83.24;100184.00;5006434;28;20046;-50
2024/04/04 05:06:16;;;;;;;13.38;2.17;;;;;;;8.87;83.29;100174.22;5009024;28;20061;-47
2024/04/04 05:08:41;;;;;;;8.93;1.60;;;;;;;8.98;83.27;100167.94;5008869;28;20508;-51
2024/04/04 05:11:07;;;;;;;7.40;1.30;;;;;;;9.07;83.58;100165.25;5008732;28;20056;-51
2024/04/04 05:13:33;;;;;;;4.80;1.50;;;;;;;9.10;83.18;100162.34;5010610;28;20194;-52
2024/04/04 05:15:59;;;;;;;7.80;1.45;;;;;;;9.15;83.63;100160.09;5016324;28;20137;-51
2024/04/04 05:18:26;;;;;;;7.43;1.85;;;;;;;9.49;82.42;100160.47;5010887;28;20410;-48
2024/04/04 05:20:59;;;;;;;8.00;2.08;;;;;;;9.35;83.05;100149.41;4990543;28;20385;-48
2024/04/04 05:23:25;;;;;;;8.90;1.65;;;;;;;9.15;83.56;100152.09;5008122;28;20045;-51
2024/04/04 05:25:52;;;;;;;8.13;1.80;;;;;;;9.39;83.85;100140.22;5005446;28;20149;-49
2024/04/04 05:28:17;;;;;;;9.45;1.83;;;;;;;9.32;83.67;100142.56;5009700;28;20050;-51
2024/04/04 05:30:43;;;;;;;7.45;1.63;;;;;;;9.60;82.66;100139.00;5006628;28;20056;-45
2024/04/04 05:33:09;;;;;;;6.82;1.58;;;;;;;9.36;83.82;100132.47;5011645;28;20437;-50
2024/04/04 05:35:35;;;;;;;4.55;1.15;;;;;;;9.44;84.30;100143.25;5006042;28;20132;-51
2024/04/04 05:38:00;;;;;;;8.38;1.95;;;;;;;9.72;83.24;100144.16;5011021;28;20056;-49
2024/04/04 05:40:26;;;;;;;8.82;2.60;;;;;;;9.17;85.66;100144.84;4996096;28;20478;-51
2024/04/04 05:42:53;;;;;;;11.52;3.45;;;;;;;9.40;85.34;100128.56;5009197;28;20058;-53
2024/04/04 05:45:18;;;;;;;8.20;1.90;;;;;;;9.43;86.58;100128.28;5018523;28;20046;-47
2024/04/04 05:47:44;;;;;;;11.63;1.83;;;;;;;9.42;86.58;100134.56;5017171;28;20488;-47
2024/04/04 05:50:10;;;;;;;8.35;2.22;;;;;;;9.54;86.62;100123.63;5007100;28;20497;-52
2024/04/04 05:52:36;;;;;;;8.18;2.15;;;;;;;9.50;87.16;100114.25;5006559;28;20160;-51
2024/04/04 05:55:02;;;;;;;11.40;2.35;;;;;;;9.63;86.57;100121.91;4999216;28;20049;-49
2024/04/04 05:57:28;;;;;;;10.05;2.33;;;;;;;9.48;87.24;100104.75;4997894;28;20462;-53
2024/04/04 05:59:54;;;;;;;9.02;2.47;;;;;;;9.49;87.53;100106.41;5007081;28;20381;-48
2024/04/04 06:02:20;;;;;;;4.55;2.08;;;;;;;9.48;87.92;100104.75;5023637;28;20050;-48
2024/04/04 06:04:46;;;;;;;10.88;2.92;;;;;;;9.45;87.21;100099.72;5000398;28;20064;-53
2024/04/04 06:07:12;;;;;;;10.93;2.58;;;;;;;9.34;88.96;100102.50;5008911;28;20053;-49
2024/04/04 06:09:38;;;;;;;26.95;3.10;;;;;;;9.56;88.81;100096.88;5019059;28;20513;-49
2024/04/04 06:12:05;;;;;;;12.07;2.97;;;;;;;9.41;89.56;100099.16;5009506;28;20052;-51
2024/04/04 06:14:31;;;;;;;11.98;3.55;;;;;;;9.41;89.33;100098.31;5005691;28;20053;-52
2024/04/04 06:16:57;;;;;;;12.02;3.25;;;;;;;9.29;90.90;100094.13;5010404;28;20046;-51
2024/04/04 06:22:19;;;;;;;8.07;2.90;;;;;;;9.72;89.09;100075.81;5036492;28;20045;-47
2024/04/04 06:24:45;;;;;;;14.23;3.15;;;;;;;9.76;88.03;100071.00;5033069;28;20140;-53
2024/04/04 06:27:11;;;;;;;8.63;3.17;;;;;;;9.74;89.73;100070.34;5023284;28;20049;-50
2024/04/04 06:29:37;;;;;;;8.55;3.55;;;;;;;9.39;90.91;100069.25;5040290;28;20056;-51
2024/04/04 06:32:05;;;;;;;11.15;3.38;;;;;;;9.35;90.96;100072.28;5043739;28;20037;-51
2024/04/04 06:34:32;;;;;;;10.82;3.88;;;;;;;9.32;92.89;100057.47;5038590;28;20055;-52
2024/04/04 06:36:58;;;;;;;9.60;3.70;;;;;;;9.10;93.38;100063.13;5042194;28;20051;-52
2024/04/04 06:39:23;;;;;;;8.68;3.60;;;;;;;9.13;92.93;100066.34;5015158;28;20136;-51
2024/04/04 06:41:49;;;;;;;9.68;3.97;;;;;;;9.54;92.35;100049.13;5031280;28;20509;-51
2024/04/04 06:44:15;;;;;;;9.32;3.53;;;;;;;9.67;91.38;100050.63;5005738;28;20132;-51
2024/04/04 06:46:41;;;;;;;10.68;3.78;;;;;;;9.55;91.65;100042.84;5032296;28;20603;-50
2024/04/04 06:49:07;;;;;;;8.65;3.72;;;;;;;9.85;90.66;100048.84;5025284;28;20040;-52
2024/04/04 06:51:33;;;;;;;8.35;3.75;;;;;;;9.92;90.68;100039.28;5039766;28;20055;-51
2024/04/04 06:53:58;;;;;;;11.25;3.88;;;;;;;9.83;91.30;100035.69;5043335;28;20066;-48
2024/04/04 06:56:24;;;;;;;10.63;3.70;;;;;;;9.78;91.46;100037.97;5040157;28;20460;-48
2024/04/04 06:58:50;;;;;;;7.80;3.83;;;;;;;10.07;90.82;100044.94;5042907;28;20385;-49
2024/04/04 07:01:16;;;;;;;7.00;3.63;;;;;;;9.76;91.92;100031.94;5039101;28;20049;-52
2024/04/04 07:03:42;;;;;;;7.90;5.22;;;;;;;10.14;90.29;100030.88;5039878;28;20045;-52
2024/04/04 07:06:07;;;;;;;9.18;3.80;;;;;;;9.91;90.49;100025.13;5057776;28;20053;-50
2024/04/04 07:08:35;;;;;;;10.48;4.18;;;;;;;9.97;91.56;100021.03;5037467;28;20647;-48
2024/04/04 07:11:05;;;;;;;8.77;3.67;;;;;;;9.78;92.66;100011.34;5035467;28;20485;-50
2024/04/04 07:13:35;;;;;;;12.00;4.60;;;;;;;9.81;92.98;100015.50;5040720;28;20586;-51
2024/04/04 07:16:04;;;;;;;8.07;4.05;;;;;;;9.88;92.16;100022.75;5024517;28;20491;-53
2024/04/04 07:18:33;;;;;;;9.88;4.80;;;;;;;9.80;93.24;100020.03;5036431;28;20447;-53
2024/04/04 07:21:00;;;;;;;9.57;4.18;;;;;;;10.06;93.25;100020.13;5024319;28;20055;-54
2024/04/04 07:23:26;;;;;;;6.47;3.80;;;;;;;10.13;91.88;100020.34;5013070;28;20055;-53
2024/04/04 07:25:53;;;;;;;11.88;4.43;;;;;;;10.28;90.72;100011.69;5042911;28;20080;-49
2024/04/04 07:28:19;;;;;;;10.82;3.97;;;;;;;10.30;91.17;100004.34;5022470;28;20092;-53
2024/04/04 07:30:45;;;;;;;9.07;4.72;;;;;;;10.21;92.26;100001.81;5033350;28;20407;-53
2024/04/04 07:33:11;;;;;;;7.22;3.80;;;;;;;10.24;93.46;100001.47;5034712;28;20061;-53
2024/04/04 07:35:38;;;;;;;8.85;4.75;;;;;;;10.30;92.14;99995.53;5029770;28;20474;-50
2024/04/04 07:38:08;;;;;;;6.82;4.13;;;;;;;10.29;92.51;99993.84;5041312;28;20051;-52
2024/04/04 07:40:38;;;;;;;6.82;4.35;;;;;;;10.06;94.07;99992.66;5012752;28;20060;-53
2024/04/04 07:43:05;;;;;;;5.75;4.60;;;;;;;10.20;94.04;100002.78;5023151;28;20045;-51
2024/04/04 07:45:36;;;;;;;7.50;5.25;;;;;;;10.31;91.71;99998.06;5007138;28;20058;-51
2024/04/04 07:48:02;;;;;;;7.95;4.95;;;;;;;10.36;93.48;99993.09;5023128;28;20050;-49
2024/04/04 07:50:28;;;;;;;9.48;5.20;;;;;;;10.68;93.89;99975.72;4994321;28;20053;-52
2024/04/04 07:52:53;;;;;;;9.52;5.30;;;;;;;10.51;94.64;99993.38;5042518;28;20053;-51
2024/04/04 07:55:19;;;;;;;10.00;5.03;;;;;;;10.54;93.63;99986.94;5040419;28;20194;-50
2024/04/04 07:57:45;;;;;;;8.40;5.43;;;;;;;10.73;92.81;99976.94;5042172;28;20428;-50
2024/04/04 08:00:14;;;;;;;8.00;5.47;;;;;;;10.53;94.32;99978.13;5041637;28;20102;-52
2024/04/04 08:02:41;;;;;;;9.05;5.22;;;;;;;10.71;95.45;99972.72;5039502;28;20060;-54
2024/04/04 08:05:08;;;;;;;7.15;5.45;;;;;;;10.68;94.26;99978.41;5041304;28;20056;-51
2024/04/04 08:07:36;;;;;;;9.63;5.57;;;;;;;11.06;92.79;99967.28;5037076;28;20045;-50
2024/04/04 08:10:05;;;;;;;6.90;4.93;;;;;;;10.62;94.08;99973.69;5018472;28;20044;-48
2024/04/04 08:12:33;;;;;;;8.15;5.25;;;;;;;10.68;93.90;99973.06;5039491;28;20056;-51
2024/04/04 08:14:59;;;;;;;8.00;4.72;;;;;;;10.89;93.27;99972.69;5041742;28;20055;-53
2024/04/04 08:17:28;;;;;;;8.63;5.07;;;;;;;11.00;92.96;99975.91;5039766;28;20080;-49
2024/04/04 08:19:54;;;;;;;6.63;5.10;;;;;;;11.00;93.38;99962.59;5032664;28;20042;-50
2024/04/04 08:22:21;;;;;;;7.20;5.20;;;;;;;11.35;91.82;99966.91;5042791;28;20052;-51
2024/04/04 08:24:46;;;;;;;8.02;5.03;;;;;;;11.21;91.65;99962.19;5042652;28;20131;-48
2024/04/04 08:27:12;;;;;;;7.50;4.65;;;;;;;11.35;91.92;99966.06;5007584;28;20492;-52
2024/04/04 08:29:39;;;;;;;7.93;5.38;;;;;;;10.76;93.57;99967.78;5034747;28;20053;-49
2024/04/04 08:32:05;;;;;;;9.77;4.78;;;;;;;10.97;93.69;99972.72;5036505;28;20725;-47
2024/04/04 08:34:32;;;;;;;7.32;4.72;;;;;;;10.59;96.11;99976.66;5042423;28;20408;-52
2024/04/04 08:36:58;;;;;;;6.85;4.82;;;;;;;10.83;95.81;99960.81;5044119;28;20093;-52
2024/04/04 08:39:24;;;;;;;7.20;4.93;;;;;;;11.03;95.63;99966.78;5019059;28;20071;-50
2024/04/04 08:41:51;;;;;;;7.88;4.55;;;;;;;11.02;94.50;99960.59;5045457;28;20045;-50
2024/04/04 08:44:17;;;;;;;9.95;5.25;;;;;;;10.95;95.54;99959.56;5044671;28;20045;-53
2024/04/04 08:46:44;;;;;;;6.55;4.97;;;;;;;11.06;95.56;99956.59;5030019;28;20898;-49
2024/04/04 08:49:13;;;;;;;8.10;5.00;;;;;;;11.26;95.80;99962.53;5032044;28;20393;-52
2024/04/04 08:51:39;;;;;;;6.75;5.07;;;;;;;11.57;94.00;99953.00;5035393;28;20460;-50
2024/04/04 08:54:05;;;;;;;12.15;5.07;;;;;;;11.64;94.30;99957.69;5045899;28;20128;-53
2024/04/04 08:56:32;;;;;;;7.75;4.35;;;;;;;11.71;93.41;99956.06;5043857;28;20061;-54
2024/04/04 08:58:58;;;;;;;7.60;4.63;;;;;;;11.70;93.11;99957.88;5045998;28;20067;-49
2024/04/04 09:01:25;;;;;;;8.25;4.43;;;;;;;11.90;93.48;99961.09;5043246;28;20500;-51
2024/04/04 09:03:52;;;;;;;6.60;4.05;;;;;;;11.71;94.06;99953.38;5010929;28;20053;-54
2024/04/04 09:06:19;;;;;;;6.10;3.58;;;;;;;11.70;93.60;99960.56;5043494;28;20063;-51
2024/04/04 09:08:45;;;;;;;6.05;3.63;;;;;;;11.71;94.31;99956.88;5045617;28;20044;-52
2024/04/04 09:11:11;;;;;;;7.25;3.67;;;;;;;11.66;95.16;99950.34;5031997;28;20059;-55
2024/04/04 09:13:38;;;;;;;6.20;3.90;;;;;;;11.52;94.95;99957.13;5006089;28;20053;-51
2024/04/04 09:16:04;;;;;;;7.20;4.07;;;;;;;11.65;94.67;99954.84;5032097;28;20049;-52
2024/04/04 09:18:30;;;;;;;5.82;4.03;;;;;;;11.76;94.68;99957.22;5042938;28;20056;-50
2024/04/04 09:20:59;;;;;;;7.20;4.43;;;;;;;11.55;94.22;99951.47;5044757;28;20079;-56
2024/04/04 09:23:26;;;;;;;4.67;3.53;;;;;;;11.89;93.25;99960.25;5043245;28;20051;-54
2024/04/04 09:25:53;;;;;;;5.95;4.22;;;;;;;11.89;95.41;99957.56;5015597;28;20300;-55
2024/04/04 09:28:21;;;;;;;7.15;4.95;;;;;;;11.88;94.73;99961.25;5042441;28;20418;-48
2024/04/04 09:30:50;;;;;;;8.38;4.78;;;;;;;11.93;93.60;99958.91;5044956;28;20045;-50
2024/04/04 09:33:18;;;;;;;10.15;4.18;;;;;;;11.74;93.64;99961.88;5044773;28;20082;-52
2024/04/04 09:35:45;;;;;;;6.75;3.70;;;;;;;12.11;93.67;99965.94;5025045;28;20411;-53
2024/04/04 09:38:11;;;;;;;6.82;4.05;;;;;;;11.82;95.19;99966.41;5027857;28;20601;-50
2024/04/04 09:40:38;;;;;;;8.70;3.70;;;;;;;12.17;93.29;99971.47;5027854;28;20049;-50
2024/04/04 09:43:04;;;;;;;6.03;3.78;;;;;;;12.06;94.89;99978.97;5044501;28;20049;-49
2024/04/04 09:45:30;;;;;;;9.30;3.83;;;;;;;12.15;93.43;99964.59;5025459;28;20048;-50
2024/04/04 09:47:56;;;;;;;6.80;4.18;;;;;;;12.01;93.44;99967.94;5013942;28;20045;-48
2024/04/04 09:50:22;;;;;;;7.68;3.88;;;;;;;12.00;93.86;99972.44;5040256;28;20045;-52
2024/04/04 09:52:48;;;;;;;7.95;3.80;;;;;;;12.06;93.85;99974.44;5043667;28;20037;-54
2024/04/04 09:55:23;;;;;;;8.02;4.07;;;;;;;12.07;93.82;99969.94;5045001;28;20049;-53
2024/04/04 09:57:50;;;;;;;7.15;3.85;;;;;;;12.11;93.20;99976.63;5027666;28;20897;-51
2024/04/04 10:00:18;;;;;;;7.10;3.97;;;;;;;11.69;96.24;99974.06;5026313;28;20053;-52
2024/04/04 10:02:48;;;;;;;7.30;3.97;;;;;;;11.89;94.49;99970.94;5042030;28;20398;-47
2024/04/04 10:05:18;;;;;;;7.50;4.60;;;;;;;11.74;94.62;99971.72;5044295;28;20407;-49
2024/04/04 10:07:48;;;;;;;9.88;4.35;;;;;;;12.13;94.29;99971.94;5037207;28;20693;-52
2024/04/04 10:10:22;;;;;;;7.97;4.50;;;;;;;11.97;94.27;99968.28;5018718;28;20055;-53
2024/04/04 10:12:52;;;;;;;9.13;4.80;;;;;;;11.93;95.38;99982.09;4998054;28;20575;-52
2024/04/04 10:15:19;;;;;;;9.15;5.00;;;;;;;11.58;97.11;99972.50;5021151;28;20059;-54
2024/04/04 10:17:49;;;;;;;9.55;4.70;;;;;;;11.67;97.39;99986.72;5006576;28;20049;-55
2024/04/04 10:20:17;;;;;;;8.63;4.97;;;;;;;11.42;98.33;99986.63;5014679;28;20528;-51
2024/04/04 10:22:44;;;;;;;9.05;4.80;;;;;;;11.41;98.06;99982.28;5040904;28;20791;-49
2024/04/04 10:25:10;;;;;;;7.80;4.50;;;;;;;11.69;97.45;99982.91;5037590;28;20075;-53
2024/04/04 10:27:37;;;;;;;10.90;5.07;;;;;;;11.88;95.83;99987.94;5056323;28;20419;-53
2024/04/04 10:30:05;;;;;;;10.27;4.60;;;;;;;11.74;97.18;99972.56;5015233;28;20045;-53
2024/04/04 10:32:30;;;;;;;8.30;3.58;;;;;;;11.79;95.98;99975.56;5034310;28;20485;-49
2024/04/04 10:35:03;;;;;;;4.90;3.22;;;;;;;11.85;95.86;99979.44;5015655;28;20052;-53
2024/04/04 10:37:30;;;;;;;9.95;3.40;;;;;;;11.93;95.96;99976.75;5021272;28;20053;-50
2024/04/04 10:39:57;;;;;;;8.45;3.35;;;;;;;12.17;94.37;99973.28;5005439;28;20055;-53
2024/04/04 10:42:23;;;;;;;4.07;3.00;;;;;;;11.95;94.79;99978.28;5021165;28;20501;-51
2024/04/04 10:44:51;;;;;;;5.63;3.08;;;;;;;11.76;96.19;99975.91;5017065;28;20038;-54
2024/04/04 10:47:16;;;;;;;7.13;3.25;;;;;;;12.07;95.49;99978.78;5033884;28;20102;-52
2024/04/04 10:49:42;;;;;;;6.90;2.85;;;;;;;12.09;95.54;99976.78;5023724;28;20437;-48
2024/04/04 10:52:08;;;;;;;8.10;2.75;;;;;;;12.27;94.38;99977.47;5030135;28;20132;-50
2024/04/04 10:54:34;;;;;;;4.28;2.35;;;;;;;11.96;96.23;99976.44;5041521;28;20047;-51
2024/04/04 10:57:01;;;;;;;6.55;2.42;;;;;;;11.71;98.14;99978.25;4990028;28;20049;-54
2024/04/04 10:59:27;;;;;;;5.90;2.58;;;;;;;11.42;100.00;99972.44;5040879;28;20063;-55
2024/04/04 11:01:56;;;;;;;8.75;3.55;;;;;;;11.19;100.00;99969.50;5043453;28;20492;-57
2024/04/04 11:04:24;;;;;;;7.43;3.20;;;;;;;11.69;99.39;99979.41;5025621;28;20522;-55
2024/04/04 11:06:50;;;;;;;9.68;4.10;;;;;;;11.13;100.00;99978.97;5043100;28;20288;-54
2024/04/04 11:09:21;;;;;;;7.68;3.15;;;;;;;11.50;100.00;99965.31;5042456;28;20053;-52
2024/04/04 11:11:48;;;;;;;9.32;3.85;;;;;;;11.86;98.64;99968.56;5043814;28;20044;-52
2024/04/04 11:14:14;;;;;;;11.93;3.38;;;;;;;11.72;99.40;99971.06;5042694;28;20053;-52
2024/04/04 11:16:44;;;;;;;10.30;3.85;;;;;;;11.12;100.00;99971.13;5041087;28;20557;-48
2024/04/04 11:19:10;;;;;;;11.63;4.28;;;;;;;11.40;100.00;99974.41;5043157;28;20041;-49
2024/04/04 11:21:37;;;;;;;11.98;3.92;;;;;;;11.95;100.00;99972.94;5040505;28;20055;-50
2024/04/04 11:24:03;;;;;;;8.45;3.80;;;;;;;11.38;100.00;99971.06;5042332;28;20045;-50
2024/04/04 11:26:30;;;;;;;11.18;3.88;;;;;;;11.61;100.00;99982.03;5041198;28;20041;-51
2024/04/04 11:28:58;;;;;;;14.60;5.10;;;;;;;11.89;100.00;99978.94;5003061;28;20048;-48